createdAt,value
2022-10-17T00:02:13.612Z,16.05
2022-10-17T00:04:46.313Z,15.48
2022-10-17T00:07:18.828Z,16.67
2022-10-17T00:09:51.536Z,16.08
2022-10-17T00:12:24.024Z,14.73
2022-10-17T00:14:56.956Z,15.90
2022-10-17T00:17:29.880Z,16.17
2022-10-17T00:20:03.232Z,16.05
2022-10-17T00:25:13.348Z,15.77
2022-10-17T00:27:45.932Z,15.27
2022-10-17T00:30:18.646Z,15.45
2022-10-17T00:32:51.148Z,15.60
2022-10-17T00:35:23.812Z,15.23
2022-10-17T00:37:56.272Z,16.42
2022-10-17T00:40:29.012Z,15.70
2022-10-17T00:43:01.476Z,16.55
2022-10-17T00:45:34.192Z,15.77
2022-10-17T00:48:11.524Z,17.15
2022-10-17T00:50:48.756Z,17.85
2022-10-17T00:53:21.297Z,16.85
2022-10-17T00:55:54.632Z,15.77
2022-10-17T00:58:27.246Z,16.83
2022-10-17T01:01:00.565Z,15.85
2022-10-17T01:03:33.112Z,16.80
2022-10-17T01:06:05.965Z,16.15
2022-10-17T01:08:38.756Z,17.23
2022-10-17T01:11:56.320Z,17.05
2022-10-17T01:14:57.680Z,16.52
2022-10-17T01:17:37.458Z,16.88
2022-10-17T01:20:32.240Z,17.00
2022-10-17T01:23:28.743Z,16.55
2022-10-17T01:26:23.105Z,15.63
2022-10-17T01:29:09.021Z,17.33
2022-10-17T01:31:54.760Z,18.27
2022-10-17T01:34:45.024Z,16.92
2022-10-17T01:37:34.464Z,17.85
2022-10-17T01:40:20.362Z,18.48
2022-10-17T01:43:21.102Z,17.48
2022-10-17T01:46:23.992Z,18.75
2022-10-17T01:49:00.684Z,19.13
2022-10-17T01:51:42.308Z,19.60
2022-10-17T01:54:23.903Z,20.27
2022-10-17T01:57:01.579Z,18.20
2022-10-17T01:59:41.921Z,17.65
2022-10-17T02:02:16.135Z,19.65
2022-10-17T02:04:51.543Z,19.75
2022-10-17T02:07:24.447Z,23.02
2022-10-17T02:09:56.928Z,20.02
2022-10-17T02:12:41.340Z,18.75
2022-10-17T02:15:46.767Z,19.90
2022-10-17T02:18:28.462Z,18.40
2022-10-17T02:21:14.589Z,18.95
2022-10-17T02:24:31.724Z,20.13
2022-10-17T02:27:15.122Z,20.00
2022-10-17T02:29:56.094Z,18.00
2022-10-17T02:32:40.655Z,18.27
2022-10-17T02:35:15.766Z,17.45
2022-10-17T02:37:49.117Z,17.75
2022-10-17T02:40:24.223Z,16.52
2022-10-17T02:42:58.557Z,17.65
2022-10-17T02:45:36.024Z,17.65
2022-10-17T02:48:27.813Z,17.85
2022-10-17T02:51:27.893Z,17.77
2022-10-17T02:54:03.395Z,17.17
2022-10-17T02:56:44.117Z,16.90
2022-10-17T02:59:20.342Z,17.95
2022-10-17T03:01:53.471Z,17.40
2022-10-17T03:04:25.953Z,20.15
2022-10-17T03:06:58.989Z,19.23
2022-10-17T03:09:31.444Z,20.65
2022-10-17T03:12:05.318Z,20.60
2022-10-17T03:14:37.817Z,21.40
2022-10-17T03:17:10.485Z,22.35
2022-10-17T03:19:43.041Z,20.63
2022-10-17T03:22:15.727Z,21.15
2022-10-17T03:24:48.173Z,20.80
2022-10-17T03:27:21.169Z,20.65
2022-10-17T03:29:53.661Z,20.65
2022-10-17T03:32:26.378Z,18.98
2022-10-17T03:34:58.859Z,19.60
2022-10-17T03:37:31.801Z,19.45
2022-10-17T03:40:04.891Z,18.08
2022-10-17T03:42:37.588Z,18.02
2022-10-17T03:45:10.404Z,18.33
2022-10-17T03:47:43.130Z,19.85
2022-10-17T03:50:15.740Z,19.40
2022-10-17T03:52:49.498Z,19.48
2022-10-17T03:55:22.021Z,18.20
2022-10-17T03:57:54.741Z,17.27
2022-10-17T04:00:27.287Z,19.55
2022-10-17T04:03:00.190Z,18.48
2022-10-17T04:05:32.664Z,18.75
2022-10-17T04:08:05.712Z,17.73
2022-10-17T04:10:38.608Z,18.77
2022-10-17T04:13:11.532Z,19.65
2022-10-17T04:15:54.832Z,18.77
2022-10-17T04:18:27.836Z,18.38
2022-10-17T04:21:04.508Z,19.13
2022-10-17T04:23:37.268Z,17.88
2022-10-17T04:26:09.728Z,18.75
2022-10-17T04:28:42.423Z,17.42
2022-10-17T04:31:15.364Z,18.30
2022-10-17T04:33:49.200Z,18.90
2022-10-17T04:36:23.052Z,17.92
2022-10-17T04:38:55.724Z,17.30
2022-10-17T04:41:28.184Z,17.00
2022-10-17T04:44:00.922Z,18.08
2022-10-17T04:46:34.795Z,16.13
2022-10-17T04:49:07.992Z,18.17
2022-10-17T04:51:40.565Z,19.17
2022-10-17T04:54:13.564Z,18.02
2022-10-17T04:56:47.219Z,19.75
2022-10-17T04:59:19.922Z,18.70
2022-10-17T05:01:52.376Z,18.40
2022-10-17T05:04:25.585Z,18.52
2022-10-17T05:06:58.054Z,17.05
2022-10-17T05:09:30.991Z,19.13
2022-10-17T05:12:05.465Z,18.02
2022-10-17T05:14:40.775Z,17.77
2022-10-17T05:17:13.263Z,18.30
2022-10-17T05:19:46.099Z,15.98
2022-10-17T05:22:18.538Z,17.17
2022-10-17T05:24:51.209Z,18.55
2022-10-17T05:27:23.701Z,16.80
2022-10-17T05:29:56.339Z,18.85
2022-10-17T05:32:29.119Z,18.17
2022-10-17T05:35:04.267Z,19.20
2022-10-17T05:37:36.793Z,18.52
2022-10-17T05:40:10.014Z,19.90
2022-10-17T05:42:49.402Z,19.63
2022-10-17T05:45:23.604Z,19.30
2022-10-17T05:47:56.068Z,19.65
2022-10-17T05:50:28.884Z,19.00
2022-10-17T05:53:01.831Z,21.20
2022-10-17T05:55:34.558Z,22.13
2022-10-17T05:58:07.417Z,20.17
2022-10-17T06:00:42.389Z,20.67
2022-10-17T06:03:23.681Z,20.33
2022-10-17T06:05:57.035Z,20.65
2022-10-17T06:08:29.498Z,18.77
2022-10-17T06:11:07.537Z,19.75
2022-10-17T06:14:02.054Z,19.27
2022-10-17T06:16:40.161Z,20.52
2022-10-17T06:19:12.705Z,21.15
2022-10-17T06:21:45.381Z,20.95
2022-10-17T06:24:17.873Z,19.42
2022-10-17T06:26:51.206Z,22.10
2022-10-17T06:29:23.685Z,21.48
2022-10-17T06:31:56.501Z,22.38
2022-10-17T06:34:29.001Z,19.90
2022-10-17T06:37:01.846Z,22.27
2022-10-17T06:39:35.949Z,23.05
2022-10-17T06:42:08.709Z,22.25
2022-10-17T06:44:41.305Z,22.15
2022-10-17T06:47:16.588Z,23.65
2022-10-17T06:49:51.810Z,24.08
2022-10-17T06:52:24.526Z,25.92
2022-10-17T06:54:57.053Z,25.35
2022-10-17T06:57:30.112Z,26.05
2022-10-17T07:00:04.265Z,26.67
2022-10-17T07:02:37.031Z,27.38
2022-10-17T07:05:10.089Z,26.67
2022-10-17T07:07:44.772Z,26.52
2022-10-17T07:10:18.949Z,26.27
2022-10-17T07:12:51.712Z,29.38
2022-10-17T07:15:24.182Z,26.02
2022-10-17T07:17:57.528Z,26.30
2022-10-17T07:20:30.406Z,26.02
2022-10-17T07:23:03.431Z,27.05
2022-10-17T07:25:40.023Z,27.95
2022-10-17T07:28:14.750Z,26.55
2022-10-17T07:30:50.691Z,25.38
2022-10-17T07:33:26.329Z,28.33
2022-10-17T07:36:00.235Z,26.20
2022-10-17T07:38:33.412Z,26.45
2022-10-17T07:41:07.692Z,27.90
2022-10-17T07:43:41.793Z,25.95
2022-10-17T07:46:14.360Z,27.63
2022-10-17T07:48:47.160Z,27.42
2022-10-17T07:51:20.239Z,29.00
2022-10-17T07:53:53.053Z,29.35
2022-10-17T07:56:25.498Z,25.85
2022-10-17T07:58:58.364Z,26.30
2022-10-17T08:01:31.776Z,27.45
2022-10-17T08:04:04.493Z,25.75
2022-10-17T08:06:36.980Z,25.55
2022-10-17T08:09:09.770Z,25.80
2022-10-17T08:11:44.081Z,25.48
2022-10-17T08:14:19.841Z,24.98
2022-10-17T08:16:54.923Z,26.00
2022-10-17T08:19:27.693Z,28.33
2022-10-17T08:22:01.244Z,27.92
2022-10-17T08:24:34.000Z,27.27
2022-10-17T08:27:11.474Z,25.75
2022-10-17T08:29:48.415Z,25.92
2022-10-17T08:32:26.542Z,26.02
2022-10-17T08:34:59.368Z,25.90
2022-10-17T08:37:32.767Z,25.40
2022-10-17T08:40:06.721Z,24.52
2022-10-17T08:42:54.422Z,27.20
2022-10-17T08:45:33.872Z,25.50
2022-10-17T08:48:12.655Z,26.10
2022-10-17T08:50:51.396Z,25.55
2022-10-17T08:53:48.905Z,26.75
2022-10-17T08:56:44.182Z,26.67
2022-10-17T08:59:28.842Z,26.85
2022-10-17T09:02:40.217Z,24.98
2022-10-17T09:05:34.949Z,24.48
2022-10-17T09:08:40.215Z,26.10
2022-10-17T09:11:41.871Z,25.60
2022-10-17T09:14:36.208Z,25.48
2022-10-17T09:17:13.832Z,25.80
2022-10-17T09:20:10.384Z,25.73
2022-10-17T09:25:42.992Z,26.15
2022-10-17T09:28:36.535Z,25.75
2022-10-17T09:31:23.182Z,26.95
2022-10-17T09:33:58.081Z,25.92
2022-10-17T09:36:36.967Z,24.75
2022-10-17T09:39:18.817Z,23.77
2022-10-17T09:41:59.547Z,25.33
2022-10-17T09:44:34.724Z,24.15
2022-10-17T09:47:16.004Z,25.85
2022-10-17T09:49:49.257Z,24.27
2022-10-17T09:52:33.229Z,24.95
2022-10-17T09:55:21.455Z,24.85
2022-10-17T09:58:05.468Z,23.92
2022-10-17T10:00:45.518Z,25.10
2022-10-17T10:03:21.159Z,24.75
2022-10-17T10:06:04.270Z,25.70
2022-10-17T10:08:51.671Z,24.38
2022-10-17T10:11:44.009Z,24.73
2022-10-17T10:14:40.777Z,24.30
2022-10-17T10:17:39.626Z,25.30
2022-10-17T10:20:34.248Z,24.93
2022-10-17T10:23:21.466Z,24.80
2022-10-17T10:25:56.268Z,23.58
2022-10-17T10:28:33.096Z,23.70
2022-10-17T10:31:10.023Z,24.63
2022-10-17T10:33:48.082Z,23.73
2022-10-17T10:36:23.589Z,24.35
2022-10-17T10:39:01.268Z,23.98
2022-10-17T10:41:48.216Z,23.02
2022-10-17T10:44:26.886Z,23.65
2022-10-17T10:47:17.317Z,22.75
2022-10-17T10:49:52.752Z,22.67
2022-10-17T10:52:41.543Z,21.52
2022-10-17T10:55:27.955Z,21.17
2022-10-17T10:58:15.531Z,21.17
2022-10-17T11:00:49.713Z,19.80
2022-10-17T11:03:29.272Z,20.35
2022-10-17T11:06:12.775Z,19.48
2022-10-17T11:09:11.536Z,19.73
2022-10-17T11:12:15.276Z,19.92
2022-10-17T11:15:09.596Z,20.67
2022-10-17T11:18:23.852Z,19.60
2022-10-17T11:20:59.091Z,18.48
2022-10-17T11:23:48.023Z,19.40
2022-10-17T11:26:32.391Z,18.67
2022-10-17T11:29:08.222Z,19.88
2022-10-17T11:31:47.407Z,19.38
2022-10-17T11:34:29.274Z,18.60
2022-10-17T11:37:09.591Z,19.90
2022-10-17T11:39:54.095Z,19.98
2022-10-17T11:42:33.831Z,20.80
2022-10-17T11:45:15.931Z,19.48
2022-10-17T11:47:58.378Z,19.17
2022-10-17T11:53:45.404Z,19.17
2022-10-17T11:56:26.745Z,19.73
2022-10-17T11:59:32.938Z,18.30
2022-10-17T12:02:11.779Z,18.63
2022-10-17T12:05:05.728Z,18.93
2022-10-17T12:08:00.201Z,18.42
2022-10-17T12:10:58.256Z,20.25
2022-10-17T12:13:33.678Z,18.58
2022-10-17T12:16:29.596Z,18.73
2022-10-17T12:19:02.050Z,18.58
2022-10-17T12:21:57.791Z,18.75
2022-10-17T12:24:45.403Z,18.75
2022-10-17T12:27:36.018Z,17.35
2022-10-17T12:30:20.944Z,17.48
2022-10-17T12:33:07.435Z,18.02
2022-10-17T12:35:40.552Z,16.92
2022-10-17T12:38:18.978Z,16.48
2022-10-17T12:40:54.592Z,18.65
2022-10-17T12:43:30.290Z,18.10
2022-10-17T12:46:05.214Z,19.17
2022-10-17T12:48:37.866Z,17.65
2022-10-17T12:51:40.510Z,19.17
2022-10-17T12:54:15.867Z,17.92
2022-10-17T12:56:49.740Z,18.15
2022-10-17T12:59:25.841Z,18.02
2022-10-17T13:02:01.791Z,17.63
2022-10-17T13:04:36.980Z,16.52
2022-10-17T13:07:19.944Z,17.00
2022-10-17T13:09:53.048Z,17.08
2022-10-17T13:12:27.535Z,19.35
2022-10-17T13:15:00.983Z,18.42
2022-10-17T13:17:34.889Z,17.02
2022-10-17T13:20:31.538Z,16.30
2022-10-17T13:23:25.824Z,15.57
2022-10-17T13:26:10.619Z,15.70
2022-10-17T13:28:44.032Z,15.48
2022-10-17T13:31:30.078Z,14.60
2022-10-17T13:34:05.727Z,14.57
2022-10-17T13:36:38.543Z,13.77
2022-10-17T13:39:17.197Z,13.55
2022-10-17T13:41:56.736Z,18.98
2022-10-17T13:44:33.988Z,14.20
2022-10-17T13:47:06.810Z,13.25
2022-10-17T13:49:44.320Z,13.65
2022-10-17T13:52:25.170Z,14.43
2022-10-17T13:55:17.570Z,14.60
2022-10-17T13:57:52.428Z,13.05
2022-10-17T14:00:25.170Z,13.27
2022-10-17T14:02:57.980Z,14.05
2022-10-17T14:05:30.456Z,13.85
2022-10-17T14:08:14.511Z,13.82
2022-10-17T14:10:49.506Z,13.68
2022-10-17T14:13:25.942Z,13.30
2022-10-17T14:16:01.964Z,13.90
2022-10-17T14:18:37.047Z,13.88
2022-10-17T14:24:20.979Z,12.88
2022-10-17T14:26:59.477Z,13.70
2022-10-17T14:29:50.026Z,13.50
2022-10-17T14:32:22.840Z,13.57
2022-10-17T14:35:10.575Z,14.43
2022-10-17T14:37:53.055Z,13.55
2022-10-17T14:40:28.051Z,14.18
2022-10-17T14:43:05.180Z,12.95
2022-10-17T14:45:39.754Z,12.85
2022-10-17T14:48:15.145Z,14.48
2022-10-17T14:51:10.732Z,14.38
2022-10-17T14:54:23.708Z,13.98
2022-10-17T14:56:56.427Z,14.00
2022-10-17T14:59:53.302Z,14.25
2022-10-17T15:02:22.135Z,14.23
2022-10-17T15:04:55.141Z,16.00
2022-10-17T15:07:27.929Z,14.40
2022-10-17T15:10:00.429Z,14.70
2022-10-17T15:12:33.254Z,15.60
2022-10-17T15:15:06.228Z,14.25
2022-10-17T15:17:39.448Z,15.70
2022-10-17T15:20:17.096Z,16.95
2022-10-17T15:22:49.816Z,15.57
2022-10-17T15:25:25.484Z,15.85
2022-10-17T15:27:59.140Z,15.32
2022-10-17T15:30:35.698Z,16.33
2022-10-17T15:33:08.421Z,17.08
2022-10-17T15:35:43.907Z,16.65
2022-10-17T15:38:20.636Z,15.63
2022-10-17T15:40:56.229Z,15.75
2022-10-17T15:43:33.621Z,16.98
2022-10-17T15:46:15.046Z,18.90
2022-10-17T15:48:50.956Z,16.85
2022-10-17T15:51:23.636Z,18.63
2022-10-17T15:53:56.585Z,17.65
2022-10-17T15:56:38.392Z,17.33
2022-10-17T15:59:22.723Z,18.60
2022-10-17T16:01:55.250Z,17.60
2022-10-17T16:04:29.227Z,18.48
2022-10-17T16:07:01.732Z,18.08
2022-10-17T16:09:34.938Z,17.70
2022-10-17T16:12:14.177Z,18.77
2022-10-17T16:14:46.922Z,18.73
2022-10-17T16:17:19.471Z,19.77
2022-10-17T16:19:52.232Z,17.65
2022-10-17T16:22:32.656Z,19.17
2022-10-17T16:25:09.864Z,19.15
2022-10-17T16:27:42.432Z,18.30
2022-10-17T16:30:15.885Z,19.02
2022-10-17T16:32:48.881Z,20.15
2022-10-17T16:35:24.443Z,19.08
2022-10-17T16:37:57.913Z,20.67
2022-10-17T16:40:30.605Z,22.92
2022-10-17T16:43:03.091Z,19.33
2022-10-17T16:45:36.638Z,22.55
2022-10-17T16:48:09.715Z,20.13
2022-10-17T16:50:42.663Z,21.67
2022-10-17T16:53:15.225Z,21.08
2022-10-17T16:55:59.780Z,20.90
2022-10-17T16:58:32.464Z,20.17
2022-10-17T17:01:08.876Z,21.67
2022-10-17T17:03:43.665Z,20.55
2022-10-17T17:06:22.215Z,21.98
2022-10-17T17:08:56.092Z,20.75
2022-10-17T17:11:29.351Z,22.38
2022-10-17T17:14:02.681Z,22.60
2022-10-17T17:16:35.987Z,22.92
2022-10-17T17:19:14.291Z,23.38
2022-10-17T17:21:52.817Z,25.33
2022-10-17T17:24:25.873Z,23.92
2022-10-17T17:26:58.593Z,25.38
2022-10-17T17:29:31.216Z,23.27
2022-10-17T17:32:04.016Z,24.42
2022-10-17T17:34:37.732Z,24.98
2022-10-17T17:37:10.783Z,25.05
2022-10-17T17:39:43.427Z,24.98
2022-10-17T17:42:16.139Z,24.20
2022-10-17T17:44:49.642Z,25.83
2022-10-17T17:47:22.417Z,24.95
2022-10-17T17:49:54.877Z,25.75
2022-10-17T17:52:27.743Z,25.95
2022-10-17T17:55:00.377Z,23.67
2022-10-17T17:57:33.185Z,25.40
2022-10-17T18:00:06.618Z,25.15
2022-10-17T18:02:42.214Z,24.80
2022-10-17T18:05:17.063Z,26.02
2022-10-17T18:07:49.888Z,25.70
2022-10-17T18:10:22.669Z,25.42
2022-10-17T18:12:55.858Z,27.17
2022-10-17T18:15:29.866Z,26.73
2022-10-17T18:18:02.583Z,28.58
2022-10-17T18:20:36.175Z,26.58
2022-10-17T18:23:10.108Z,26.60
2022-10-17T18:25:42.654Z,26.95
2022-10-17T18:28:15.675Z,28.27
2022-10-17T18:30:54.174Z,29.02
2022-10-17T18:33:26.879Z,27.00
2022-10-17T18:36:07.337Z,26.65
2022-10-17T18:38:40.296Z,27.38
2022-10-17T18:41:15.566Z,25.38
2022-10-17T18:43:50.117Z,29.55
2022-10-17T18:46:29.443Z,27.63
2022-10-17T18:49:03.160Z,28.45
2022-10-17T18:51:35.936Z,30.00
2022-10-17T18:54:14.398Z,27.08
2022-10-17T18:56:52.155Z,28.65
2022-10-17T18:59:25.023Z,26.60
2022-10-17T19:01:57.609Z,28.65
2022-10-17T19:04:30.603Z,28.20
2022-10-17T19:07:03.082Z,26.90
2022-10-17T19:09:35.832Z,28.92
2022-10-17T19:12:08.386Z,28.67
2022-10-17T19:14:41.205Z,26.65
2022-10-17T19:17:13.673Z,26.80
2022-10-17T19:19:50.152Z,26.83
2022-10-17T19:22:22.676Z,27.05
2022-10-17T19:24:55.372Z,28.48
2022-10-17T19:27:28.053Z,28.75
2022-10-17T19:30:01.109Z,28.65
2022-10-17T19:32:34.071Z,28.42
2022-10-17T19:35:07.443Z,30.00
2022-10-17T19:37:40.464Z,28.20
2022-10-17T19:40:14.153Z,30.65
2022-10-17T19:42:47.322Z,29.02
2022-10-17T19:45:20.033Z,29.15
2022-10-17T19:47:52.580Z,28.00
2022-10-17T19:50:25.269Z,28.25
2022-10-17T19:52:58.100Z,28.85
2022-10-17T19:55:32.976Z,29.40
2022-10-17T19:58:05.585Z,29.70
2022-10-17T20:00:38.339Z,28.95
2022-10-17T20:03:10.845Z,28.13
2022-10-17T20:05:43.944Z,29.33
2022-10-17T20:08:17.220Z,28.55
2022-10-17T20:10:49.951Z,29.25
2022-10-17T20:13:25.905Z,28.15
2022-10-17T20:15:59.595Z,27.50
2022-10-17T20:18:37.925Z,27.00
2022-10-17T20:21:13.929Z,26.77
2022-10-17T20:23:49.063Z,28.65
2022-10-17T20:26:39.622Z,28.75
2022-10-17T20:29:20.608Z,27.55
2022-10-17T20:32:00.986Z,28.25
2022-10-17T20:34:35.670Z,27.08
2022-10-17T20:37:42.820Z,26.45
2022-10-17T20:40:35.411Z,25.33
2022-10-17T20:43:10.944Z,25.90
2022-10-17T20:45:51.200Z,24.80
2022-10-17T20:48:26.731Z,25.27
2022-10-17T20:50:59.211Z,26.02
2022-10-17T20:53:36.978Z,24.60
2022-10-17T20:56:21.105Z,25.08
2022-10-17T20:59:00.029Z,25.45
2022-10-17T21:01:34.287Z,24.80
2022-10-17T21:04:33.368Z,24.73
2022-10-17T21:07:00.293Z,23.92
2022-10-17T21:09:33.258Z,24.33
2022-10-17T21:12:05.807Z,23.02
2022-10-17T21:14:38.794Z,22.25
2022-10-17T21:17:11.297Z,23.98
2022-10-17T21:19:43.953Z,23.98
2022-10-17T21:22:16.837Z,23.77
2022-10-17T21:24:49.532Z,25.35
2022-10-17T21:27:22.047Z,22.40
2022-10-17T21:29:54.723Z,23.45
2022-10-17T21:32:40.446Z,22.73
2022-10-17T21:35:20.380Z,22.95
2022-10-17T21:37:52.868Z,23.08
2022-10-17T21:40:25.833Z,23.75
2022-10-17T21:42:58.355Z,23.42
2022-10-17T21:45:31.027Z,24.48
2022-10-17T21:48:19.179Z,23.20
2022-10-17T21:51:00.213Z,22.92
2022-10-17T21:53:33.267Z,23.38
2022-10-17T21:56:10.290Z,21.25
2022-10-17T21:58:43.088Z,21.60
2022-10-17T22:01:25.868Z,23.15
2022-10-17T22:04:02.212Z,20.65
2022-10-17T22:06:40.197Z,23.15
2022-10-17T22:09:18.872Z,22.77
2022-10-17T22:11:56.741Z,23.23
2022-10-17T22:14:29.314Z,24.38
2022-10-17T22:17:02.022Z,22.80
2022-10-17T22:19:34.554Z,23.52
2022-10-17T22:22:07.275Z,23.67
2022-10-17T22:24:39.859Z,21.75
2022-10-17T22:27:12.517Z,22.52
2022-10-17T22:29:45.011Z,22.65
2022-10-17T22:32:21.506Z,23.20
2022-10-17T22:34:55.115Z,21.98
2022-10-17T22:37:27.899Z,22.52
2022-10-17T22:40:00.463Z,23.17
2022-10-17T22:42:34.561Z,23.30
2022-10-17T22:45:07.444Z,24.52
2022-10-17T22:47:40.082Z,25.05
2022-10-17T22:50:12.588Z,23.88
2022-10-17T22:52:45.231Z,23.77
2022-10-17T22:55:17.867Z,23.95
2022-10-17T22:57:50.620Z,24.67
2022-10-17T23:00:23.186Z,24.60
2022-10-17T23:02:56.133Z,24.00
2022-10-17T23:05:28.969Z,24.67
2022-10-17T23:08:01.669Z,25.90
2022-10-17T23:10:34.462Z,25.77
2022-10-17T23:13:07.236Z,23.73
2022-10-17T23:15:40.215Z,24.75
2022-10-17T23:18:13.024Z,24.63
2022-10-17T23:20:45.708Z,24.55
2022-10-17T23:23:19.079Z,24.92
2022-10-17T23:25:51.642Z,24.80
2022-10-17T23:28:24.365Z,23.95
2022-10-17T23:30:56.936Z,26.13
2022-10-17T23:33:29.582Z,23.75
2022-10-17T23:36:05.301Z,25.08
2022-10-17T23:38:39.371Z,25.92
2022-10-17T23:41:12.375Z,26.50
2022-10-17T23:43:45.177Z,26.83
2022-10-17T23:46:17.666Z,24.83
2022-10-17T23:48:50.637Z,25.42
2022-10-17T23:51:23.529Z,25.70
2022-10-17T23:53:56.453Z,25.35
2022-10-17T23:56:28.898Z,25.60
2022-10-17T23:59:01.700Z,25.10
